createdAt,value
2024-02-02T00:00:13.175Z,85.29
2024-02-02T00:01:13.147Z,85.29
2024-02-02T00:02:13.119Z,85.08
2024-02-02T00:03:13.190Z,84.98
2024-02-02T00:04:13.123Z,84.98
2024-02-02T00:05:13.104Z,84.88
2024-02-02T00:06:13.086Z,84.77
2024-02-02T00:07:13.139Z,84.88
2024-02-02T00:08:13.031Z,84.77
2024-02-02T00:09:13.042Z,84.67
2024-02-02T00:10:13.013Z,84.56
2024-02-02T00:11:13.009Z,84.56
2024-02-02T00:12:13.085Z,84.36
2024-02-02T00:13:12.988Z,84.36
2024-02-02T00:14:12.943Z,84.21
2024-02-02T00:15:12.981Z,84.00
2024-02-02T00:16:12.963Z,84.00
2024-02-02T00:17:13.006Z,83.80
2024-02-02T00:18:12.984Z,83.80
2024-02-02T00:19:13.036Z,83.80
2024-02-02T00:20:12.943Z,83.69
2024-02-02T00:21:12.914Z,83.80
2024-02-02T00:22:12.916Z,83.80
2024-02-02T00:23:12.893Z,83.80
2024-02-02T00:24:12.907Z,83.80
2024-02-02T00:25:12.850Z,83.80
2024-02-02T00:26:12.836Z,83.90
2024-02-02T00:27:12.860Z,84.00
2024-02-02T00:28:12.837Z,84.00
2024-02-02T00:29:12.859Z,84.11
2024-02-02T00:30:12.875Z,84.21
2024-02-02T00:31:12.808Z,84.25
2024-02-02T00:32:12.781Z,84.25
2024-02-02T00:33:12.931Z,84.36
2024-02-02T00:34:12.916Z,84.46
2024-02-02T00:35:12.777Z,84.46
2024-02-02T00:36:12.754Z,84.56
2024-02-02T00:37:12.717Z,84.56
2024-02-02T00:38:12.702Z,84.67
2024-02-02T00:39:12.750Z,84.77
2024-02-02T00:40:12.699Z,84.77
2024-02-02T00:41:12.732Z,84.77
2024-02-02T00:42:12.723Z,84.77
2024-02-02T00:43:12.696Z,84.77
2024-02-02T00:44:12.670Z,84.67
2024-02-02T00:45:12.772Z,84.77
2024-02-02T00:46:12.661Z,84.67
2024-02-02T00:47:12.650Z,84.67
2024-02-02T00:48:12.706Z,84.67
2024-02-02T00:49:12.678Z,84.67
2024-02-02T00:50:12.755Z,84.67
2024-02-02T00:51:12.714Z,84.88
2024-02-02T00:52:12.563Z,84.77
2024-02-02T00:53:12.605Z,84.77
2024-02-02T00:54:12.609Z,84.88
2024-02-02T00:55:12.555Z,84.88
2024-02-02T00:56:12.593Z,85.08
2024-02-02T00:57:12.533Z,85.08
2024-02-02T00:58:20.108Z,85.19
2024-02-02T00:59:12.499Z,85.29
2024-02-02T01:00:12.536Z,85.19
2024-02-02T01:01:12.529Z,85.19
2024-02-02T01:02:12.484Z,85.29
2024-02-02T01:03:12.500Z,85.19
2024-02-02T01:04:12.488Z,85.29
2024-02-02T01:05:12.500Z,85.39
2024-02-02T01:06:12.518Z,85.43
2024-02-02T01:07:12.448Z,85.19
2024-02-02T01:08:12.396Z,85.08
2024-02-02T01:09:12.509Z,85.08
2024-02-02T01:10:12.399Z,84.98
2024-02-02T01:11:12.347Z,84.98
2024-02-02T01:12:12.383Z,84.88
2024-02-02T01:13:12.336Z,84.77
2024-02-02T01:14:12.313Z,84.67
2024-02-02T01:15:12.394Z,84.67
2024-02-02T01:16:12.333Z,84.67
2024-02-02T01:17:12.297Z,84.56
2024-02-02T01:18:12.375Z,84.56
2024-02-02T01:19:12.393Z,84.56
2024-02-02T01:20:12.331Z,84.46
2024-02-02T01:21:12.316Z,84.67
2024-02-02T01:22:12.282Z,84.56
2024-02-02T01:23:12.251Z,84.56
2024-02-02T01:24:12.248Z,84.56
2024-02-02T01:25:12.222Z,84.46
2024-02-02T01:26:12.198Z,84.46
2024-02-02T01:27:12.270Z,84.56
2024-02-02T01:28:12.228Z,84.56
2024-02-02T01:29:12.180Z,84.56
2024-02-02T01:30:12.152Z,84.46
2024-02-02T01:31:12.167Z,84.36
2024-02-02T01:32:12.155Z,84.36
2024-02-02T01:33:12.244Z,84.25
2024-02-02T01:34:12.299Z,84.05
2024-02-02T01:35:12.141Z,84.00
2024-02-02T01:36:12.336Z,84.00
2024-02-02T01:37:12.090Z,84.00
2024-02-02T01:38:12.076Z,84.00
2024-02-02T01:39:12.071Z,84.00
2024-02-02T01:40:12.096Z,84.00
2024-02-02T01:41:12.037Z,84.11
2024-02-02T01:42:12.090Z,84.21
2024-02-02T01:43:12.049Z,84.05
2024-02-02T01:44:12.047Z,84.15
2024-02-02T01:45:12.028Z,84.05
2024-02-02T01:46:12.097Z,84.05
2024-02-02T01:47:12.044Z,84.05
2024-02-02T01:48:12.173Z,84.05
2024-02-02T01:49:12.052Z,84.25
2024-02-02T01:50:11.951Z,84.15
2024-02-02T01:51:11.989Z,84.15
2024-02-02T01:52:12.046Z,84.05
2024-02-02T01:53:11.915Z,84.05
2024-02-02T01:54:11.942Z,83.94
2024-02-02T01:55:11.892Z,83.73
2024-02-02T01:56:11.868Z,83.73
2024-02-02T01:57:11.925Z,83.84
2024-02-02T01:58:11.888Z,83.84
2024-02-02T01:59:11.832Z,83.73
2024-02-02T02:00:11.863Z,83.73
2024-02-02T02:01:11.847Z,83.73
2024-02-02T02:02:11.807Z,83.63
2024-02-02T02:03:11.893Z,83.53
2024-02-02T02:04:11.999Z,83.53
2024-02-02T02:05:11.844Z,83.28
2024-02-02T02:06:11.817Z,83.38
2024-02-02T02:07:11.770Z,83.38
2024-02-02T02:08:11.747Z,83.38
2024-02-02T02:09:11.779Z,83.38
2024-02-02T02:10:11.743Z,83.28
2024-02-02T02:11:11.736Z,83.38
2024-02-02T02:12:11.772Z,83.48
2024-02-02T02:13:11.701Z,83.53
2024-02-02T02:14:11.699Z,83.28
2024-02-02T02:15:11.854Z,83.28
2024-02-02T02:16:11.667Z,83.28
2024-02-02T02:17:11.642Z,83.28
2024-02-02T02:18:11.774Z,83.38
2024-02-02T02:19:11.746Z,83.28
2024-02-02T02:20:11.792Z,83.28
2024-02-02T02:21:11.648Z,83.28
2024-02-02T02:22:11.623Z,83.17
2024-02-02T02:23:11.590Z,83.38
2024-02-02T02:24:11.640Z,83.32
2024-02-02T02:25:11.592Z,83.42
2024-02-02T02:26:11.565Z,83.42
2024-02-02T02:27:11.556Z,83.53
2024-02-02T02:28:11.568Z,83.53
2024-02-02T02:29:11.524Z,83.53
2024-02-02T02:30:11.542Z,83.53
2024-02-02T02:31:11.506Z,83.63
2024-02-02T02:32:11.563Z,83.73
2024-02-02T02:33:11.575Z,83.73
2024-02-02T02:34:11.593Z,83.73
2024-02-02T02:35:11.469Z,83.73
2024-02-02T02:36:11.489Z,83.73
2024-02-02T02:37:11.455Z,83.94
2024-02-02T02:38:11.441Z,83.94
2024-02-02T02:39:11.444Z,83.94
2024-02-02T02:40:11.447Z,83.94
2024-02-02T02:41:11.418Z,83.94
2024-02-02T02:42:11.525Z,84.15
2024-02-02T02:43:11.430Z,83.94
2024-02-02T02:44:11.392Z,84.05
2024-02-02T02:45:11.420Z,84.19
2024-02-02T02:46:11.380Z,84.29
2024-02-02T02:47:11.376Z,84.19
2024-02-02T02:48:11.435Z,84.19
2024-02-02T02:49:11.493Z,84.29
2024-02-02T02:50:11.308Z,84.19
2024-02-02T02:51:11.301Z,84.39
2024-02-02T02:52:11.362Z,84.19
2024-02-02T02:53:11.280Z,84.29
2024-02-02T02:54:11.307Z,84.19
2024-02-02T02:55:11.284Z,84.08
2024-02-02T02:56:11.286Z,84.19
2024-02-02T02:57:11.335Z,84.19
2024-02-02T02:58:11.257Z,84.19
2024-02-02T02:59:11.234Z,84.19
2024-02-02T03:00:11.290Z,83.98
2024-02-02T03:01:11.277Z,83.98
2024-02-02T03:02:11.217Z,83.98
2024-02-02T03:03:11.257Z,83.87
2024-02-02T03:04:11.228Z,83.98
2024-02-02T03:05:11.210Z,83.87
2024-02-02T03:06:11.240Z,83.77
2024-02-02T03:07:11.284Z,83.77
2024-02-02T03:08:11.134Z,83.77
2024-02-02T03:09:11.186Z,83.77
2024-02-02T03:10:11.148Z,83.77
2024-02-02T03:11:11.131Z,83.77
2024-02-02T03:12:11.191Z,83.67
2024-02-02T03:13:11.124Z,83.67
2024-02-02T03:14:11.083Z,83.56
2024-02-02T03:15:11.085Z,83.67
2024-02-02T03:16:11.074Z,83.56
2024-02-02T03:17:11.058Z,83.67
2024-02-02T03:18:11.103Z,83.56
2024-02-02T03:19:11.059Z,83.56
2024-02-02T03:20:11.044Z,83.56
2024-02-02T03:21:11.036Z,83.46
2024-02-02T03:22:11.043Z,83.46
2024-02-02T03:23:10.980Z,83.46
2024-02-02T03:24:11.005Z,83.46
2024-02-02T03:25:10.967Z,83.46
2024-02-02T03:26:10.954Z,83.46
2024-02-02T03:27:10.956Z,83.67
2024-02-02T03:28:11.033Z,83.67
2024-02-02T03:29:10.926Z,83.77
2024-02-02T03:30:10.991Z,83.77
2024-02-02T03:31:10.900Z,83.77
2024-02-02T03:32:10.889Z,83.87
2024-02-02T03:33:10.938Z,83.87
2024-02-02T03:34:10.951Z,83.98
2024-02-02T03:35:10.849Z,84.08
2024-02-02T03:36:10.945Z,84.08
2024-02-02T03:37:10.826Z,84.08
2024-02-02T03:38:10.855Z,84.08
2024-02-02T03:39:10.833Z,84.22
2024-02-02T03:40:10.821Z,84.29
2024-02-02T03:41:10.802Z,84.43
2024-02-02T03:42:10.833Z,84.43
2024-02-02T03:43:10.771Z,84.53
2024-02-02T03:44:10.786Z,84.43
2024-02-02T03:45:10.798Z,84.43
2024-02-02T03:46:10.764Z,84.43
2024-02-02T03:47:10.725Z,84.53
2024-02-02T03:48:10.876Z,84.43
2024-02-02T03:49:10.926Z,84.53
2024-02-02T03:50:10.862Z,84.43
2024-02-02T03:51:10.748Z,84.33
2024-02-02T03:52:10.799Z,84.33
2024-02-02T03:53:10.679Z,84.33
2024-02-02T03:54:10.683Z,84.22
2024-02-02T03:55:10.655Z,84.22
2024-02-02T03:56:10.623Z,84.22
2024-02-02T03:57:10.642Z,84.12
2024-02-02T03:58:10.641Z,84.01
2024-02-02T03:59:10.608Z,83.91
2024-02-02T04:00:10.664Z,83.91
2024-02-02T04:01:10.614Z,83.77
2024-02-02T04:02:10.582Z,83.77
2024-02-02T04:03:10.648Z,83.81
2024-02-02T04:04:10.659Z,83.77
2024-02-02T04:05:10.611Z,83.87
2024-02-02T04:06:10.567Z,83.77
2024-02-02T04:07:10.511Z,83.67
2024-02-02T04:08:10.524Z,83.77
2024-02-02T04:09:10.503Z,83.56
2024-02-02T04:10:10.531Z,83.56
2024-02-02T04:11:10.513Z,83.46
2024-02-02T04:12:10.546Z,83.46
2024-02-02T04:13:10.464Z,83.46
2024-02-02T04:14:10.454Z,83.25
2024-02-02T04:15:10.470Z,83.25
2024-02-02T04:16:10.473Z,83.36
2024-02-02T04:17:10.456Z,83.46
2024-02-02T04:18:10.557Z,83.15
2024-02-02T04:19:10.438Z,82.94
2024-02-02T04:20:10.382Z,82.94
2024-02-02T04:21:10.424Z,83.15
2024-02-02T04:22:10.414Z,82.94
2024-02-02T04:23:10.370Z,82.63
2024-02-02T04:24:10.394Z,82.59
2024-02-02T04:25:10.315Z,82.59
2024-02-02T04:26:10.338Z,82.59
2024-02-02T04:27:10.364Z,82.49
2024-02-02T04:28:10.345Z,82.59
2024-02-02T04:29:10.309Z,82.39
2024-02-02T04:30:10.370Z,82.59
2024-02-02T04:31:10.278Z,82.49
2024-02-02T04:32:10.268Z,82.39
2024-02-02T04:33:10.358Z,82.28
2024-02-02T04:34:10.378Z,82.28
2024-02-02T04:35:10.251Z,82.28
2024-02-02T04:36:10.263Z,82.18
2024-02-02T04:37:10.208Z,82.18
2024-02-02T04:38:10.181Z,82.18
2024-02-02T04:39:10.334Z,82.07
2024-02-02T04:40:10.189Z,82.03
2024-02-02T04:41:10.145Z,82.07
2024-02-02T04:42:10.189Z,82.24
2024-02-02T04:43:10.187Z,82.28
2024-02-02T04:44:10.133Z,82.34
2024-02-02T04:45:10.153Z,82.34
2024-02-02T04:46:10.132Z,82.28
2024-02-02T04:47:10.108Z,82.28
2024-02-02T04:48:10.200Z,82.24
2024-02-02T04:49:10.267Z,82.34
2024-02-02T04:50:10.087Z,82.34
2024-02-02T04:51:10.101Z,82.49
2024-02-02T04:52:10.075Z,82.55
2024-02-02T04:53:10.046Z,82.55
2024-02-02T04:54:10.057Z,82.55
2024-02-02T04:55:10.038Z,82.55
2024-02-02T04:56:10.020Z,82.65
2024-02-02T04:57:09.997Z,82.80
2024-02-02T04:58:09.996Z,82.70
2024-02-02T04:59:10.012Z,82.90
2024-02-02T05:00:10.140Z,82.90
2024-02-02T05:01:09.982Z,82.80
2024-02-02T05:02:10.115Z,82.90
2024-02-02T05:03:09.946Z,83.01
2024-02-02T05:04:09.956Z,82.80
2024-02-02T05:05:09.909Z,82.90
2024-02-02T05:06:09.921Z,83.11
2024-02-02T05:07:09.914Z,83.01
2024-02-02T05:08:09.964Z,83.01
2024-02-02T05:09:09.956Z,83.11
2024-02-02T05:10:09.870Z,83.11
2024-02-02T05:11:09.839Z,83.11
2024-02-02T05:12:09.864Z,83.22
2024-02-02T05:13:09.887Z,83.11
2024-02-02T05:14:09.836Z,83.32
2024-02-02T05:15:09.912Z,83.32
2024-02-02T05:16:11.445Z,83.32
2024-02-02T05:17:09.820Z,83.22
2024-02-02T05:18:09.915Z,83.11
2024-02-02T05:19:09.878Z,82.90
2024-02-02T05:20:09.787Z,82.70
2024-02-02T05:21:09.749Z,82.80
2024-02-02T05:22:09.733Z,82.80
2024-02-02T05:23:09.734Z,82.70
2024-02-02T05:24:21.989Z,82.65
2024-02-02T05:25:10.836Z,82.45
2024-02-02T05:26:09.683Z,82.34
2024-02-02T05:27:09.722Z,82.45
2024-02-02T05:28:09.681Z,82.34
2024-02-02T05:29:09.673Z,82.24
2024-02-02T05:30:09.769Z,82.24
2024-02-02T05:31:09.632Z,82.24
2024-02-02T05:32:09.646Z,82.34
2024-02-02T05:33:09.762Z,82.24
2024-02-02T05:34:09.844Z,82.34
2024-02-02T05:35:09.648Z,82.34
2024-02-02T05:36:09.615Z,82.34
2024-02-02T05:37:09.586Z,82.34
2024-02-02T05:38:09.576Z,82.34
2024-02-02T05:39:09.599Z,82.14
2024-02-02T05:40:09.585Z,82.24
2024-02-02T05:41:09.547Z,82.14
2024-02-02T05:42:09.569Z,82.34
2024-02-02T05:43:09.538Z,82.24
2024-02-02T05:44:09.606Z,82.24
2024-02-02T05:45:09.601Z,82.24
2024-02-02T05:46:09.553Z,82.34
2024-02-02T05:47:09.471Z,82.34
2024-02-02T05:48:09.543Z,82.45
2024-02-02T05:49:09.494Z,82.34
2024-02-02T05:50:09.533Z,82.45
2024-02-02T05:51:09.533Z,82.55
2024-02-02T05:52:09.463Z,82.55
2024-02-02T05:53:09.437Z,82.55
2024-02-02T05:54:09.396Z,82.55
2024-02-02T05:55:09.401Z,82.65
2024-02-02T05:56:09.398Z,82.76
2024-02-02T05:57:09.410Z,82.86
2024-02-02T05:58:09.372Z,82.76
2024-02-02T05:59:09.352Z,82.65
2024-02-02T06:00:09.356Z,82.76
2024-02-02T06:01:09.380Z,82.55
2024-02-02T06:02:09.340Z,82.65
2024-02-02T06:03:09.392Z,82.76
2024-02-02T06:04:09.348Z,82.55
2024-02-02T06:05:09.281Z,82.55
2024-02-02T06:06:09.351Z,82.76
2024-02-02T06:07:09.359Z,82.76
2024-02-02T06:08:09.266Z,82.55
2024-02-02T06:09:09.301Z,82.76
2024-02-02T06:10:09.236Z,82.76
2024-02-02T06:11:09.213Z,82.65
2024-02-02T06:12:09.254Z,82.65
2024-02-02T06:13:09.240Z,82.76
2024-02-02T06:14:09.183Z,82.76
2024-02-02T06:15:09.188Z,82.76
2024-02-02T06:16:09.165Z,82.86
2024-02-02T06:17:09.157Z,82.76
2024-02-02T06:18:09.261Z,82.76
2024-02-02T06:19:09.187Z,82.86
2024-02-02T06:20:09.140Z,82.76
2024-02-02T06:21:09.152Z,82.65
2024-02-02T06:22:09.181Z,82.65
2024-02-02T06:23:09.139Z,82.72
2024-02-02T06:24:09.229Z,82.55
2024-02-02T06:25:09.073Z,82.55
2024-02-02T06:26:09.085Z,82.31
2024-02-02T06:27:09.098Z,82.41
2024-02-02T06:28:09.041Z,82.41
2024-02-02T06:29:09.061Z,82.51
2024-02-02T06:30:09.104Z,82.41
2024-02-02T06:31:09.001Z,82.41
2024-02-02T06:32:09.045Z,82.51
2024-02-02T06:33:09.113Z,82.41
2024-02-02T06:34:09.096Z,82.62
2024-02-02T06:35:09.000Z,82.72
2024-02-02T06:36:09.017Z,82.72
2024-02-02T06:37:08.947Z,82.82
2024-02-02T06:38:08.944Z,82.82
2024-02-02T06:39:08.958Z,82.82
2024-02-02T06:40:08.916Z,82.62
2024-02-02T06:41:08.894Z,82.82
2024-02-02T06:42:08.977Z,82.72
2024-02-02T06:43:08.883Z,82.72
2024-02-02T06:44:08.863Z,82.72
2024-02-02T06:45:08.910Z,82.82
2024-02-02T06:46:08.848Z,82.82
2024-02-02T06:47:08.895Z,82.72
2024-02-02T06:48:08.908Z,82.72
2024-02-02T06:49:08.938Z,82.82
2024-02-02T06:50:08.871Z,82.82
2024-02-02T06:51:08.881Z,82.72
2024-02-02T06:52:08.800Z,82.72
2024-02-02T06:53:08.785Z,82.62
2024-02-02T06:54:08.790Z,82.82
2024-02-02T06:55:08.758Z,82.93
2024-02-02T06:56:08.787Z,82.93
2024-02-02T06:57:08.755Z,82.82
2024-02-02T06:58:08.714Z,82.82
2024-02-02T06:59:08.732Z,82.72
2024-02-02T07:00:08.765Z,82.51
2024-02-02T07:01:08.834Z,82.62
2024-02-02T07:02:08.735Z,82.51
2024-02-02T07:03:08.825Z,82.51
2024-02-02T07:04:08.789Z,82.41
2024-02-02T07:05:08.657Z,82.51
2024-02-02T07:06:08.758Z,82.41
2024-02-02T07:07:08.758Z,82.41
2024-02-02T07:08:08.614Z,82.41
2024-02-02T07:09:08.637Z,82.31
2024-02-02T07:10:08.601Z,82.31
2024-02-02T07:11:08.605Z,82.31
2024-02-02T07:12:08.671Z,82.31
2024-02-02T07:13:08.621Z,82.31
2024-02-02T07:14:08.556Z,82.20
2024-02-02T07:15:08.639Z,82.27
2024-02-02T07:16:08.560Z,82.31
2024-02-02T07:17:08.563Z,82.17
2024-02-02T07:18:08.622Z,81.96
2024-02-02T07:19:08.619Z,81.85
2024-02-02T07:20:08.592Z,82.06
2024-02-02T07:21:08.815Z,81.75
2024-02-02T07:22:08.503Z,81.85
2024-02-02T07:23:08.523Z,81.85
2024-02-02T07:24:08.492Z,81.85
2024-02-02T07:25:08.470Z,81.54
2024-02-02T07:26:08.491Z,81.54
2024-02-02T07:27:08.437Z,81.34
2024-02-02T07:28:08.426Z,81.34
2024-02-02T07:29:08.460Z,81.44
2024-02-02T07:30:08.464Z,81.23
2024-02-02T07:31:08.396Z,81.02
2024-02-02T07:32:08.416Z,81.02
2024-02-02T07:33:08.448Z,81.23
2024-02-02T07:34:08.655Z,81.13
2024-02-02T07:35:08.373Z,81.23
2024-02-02T07:36:08.471Z,81.54
2024-02-02T07:37:08.325Z,81.44
2024-02-02T07:38:08.335Z,81.54
2024-02-02T07:39:08.314Z,81.65
2024-02-02T07:40:08.310Z,82.06
2024-02-02T07:41:08.291Z,81.85
2024-02-02T07:42:08.308Z,82.06
2024-02-02T07:43:08.324Z,82.37
2024-02-02T07:44:08.252Z,82.37
2024-02-02T07:45:08.310Z,82.17
2024-02-02T07:46:11.376Z,82.48
2024-02-02T07:47:08.237Z,82.79
2024-02-02T07:48:08.341Z,82.89
2024-02-02T07:49:08.373Z,82.58
2024-02-02T07:50:08.239Z,82.89
2024-02-02T07:51:08.278Z,82.89
2024-02-02T07:52:08.180Z,82.06
2024-02-02T07:53:08.177Z,82.48
2024-02-02T07:54:08.172Z,82.58
2024-02-02T07:55:08.167Z,82.58
2024-02-02T07:56:08.142Z,82.68
2024-02-02T07:57:08.188Z,82.89
2024-02-02T07:58:08.110Z,83.41
2024-02-02T07:59:08.098Z,83.20
2024-02-02T08:00:08.137Z,83.83
2024-02-02T08:01:08.220Z,84.13
2024-02-02T08:02:08.085Z,83.62
2024-02-02T08:03:10.475Z,83.51
2024-02-02T08:04:08.233Z,83.83
2024-02-02T08:05:08.035Z,83.83
2024-02-02T08:06:08.233Z,84.44
2024-02-02T08:07:08.198Z,84.55
2024-02-02T08:08:08.009Z,84.55
2024-02-02T08:09:08.035Z,83.83
2024-02-02T08:10:07.983Z,84.13
2024-02-02T08:11:07.974Z,84.65
2024-02-02T08:12:08.021Z,84.96
2024-02-02T08:13:08.937Z,85.06
2024-02-02T08:14:07.955Z,84.65
2024-02-02T08:15:08.024Z,85.27
2024-02-02T08:16:07.919Z,85.38
2024-02-02T08:17:07.950Z,85.58
2024-02-02T08:18:08.048Z,86.10
2024-02-02T08:19:08.044Z,85.69
2024-02-02T08:20:07.937Z,85.58
2024-02-02T08:21:08.495Z,85.79
2024-02-02T08:22:07.869Z,85.58
2024-02-02T08:23:07.897Z,85.69
2024-02-02T08:24:07.846Z,85.58
2024-02-02T08:25:07.945Z,86.10
2024-02-02T08:26:07.863Z,86.00
2024-02-02T08:27:07.915Z,86.00
2024-02-02T08:28:07.825Z,86.41
2024-02-02T08:29:07.857Z,86.21
2024-02-02T08:30:07.829Z,86.83
2024-02-02T08:31:07.777Z,86.52
2024-02-02T08:32:07.772Z,86.93
2024-02-02T08:33:07.885Z,87.04
2024-02-02T08:34:07.856Z,87.35
2024-02-02T08:35:07.735Z,87.04
2024-02-02T08:36:07.763Z,87.24
2024-02-02T08:37:07.708Z,86.72
2024-02-02T08:38:07.720Z,87.14
2024-02-02T08:39:07.784Z,86.93
2024-02-02T08:40:07.669Z,86.72
2024-02-02T08:41:07.694Z,86.52
2024-02-02T08:42:08.382Z,86.62
2024-02-02T08:43:07.640Z,86.83
2024-02-02T08:44:07.637Z,86.72
2024-02-02T08:45:07.664Z,86.72
2024-02-02T08:46:07.752Z,87.04
2024-02-02T08:47:07.619Z,86.52
2024-02-02T08:48:07.668Z,86.72
2024-02-02T08:49:07.818Z,86.52
2024-02-02T08:50:07.667Z,86.93
2024-02-02T08:51:07.608Z,86.72
2024-02-02T08:52:07.557Z,86.62
2024-02-02T08:53:07.545Z,86.41
2024-02-02T08:54:07.548Z,86.52
2024-02-02T08:55:07.539Z,86.93
2024-02-02T08:56:07.528Z,86.62
2024-02-02T08:57:07.530Z,86.83
2024-02-02T08:58:07.498Z,87.14
2024-02-02T08:59:07.471Z,86.62
2024-02-02T09:00:07.503Z,86.52
2024-02-02T09:01:07.506Z,86.52
2024-02-02T09:02:07.450Z,86.93
2024-02-02T09:03:07.706Z,86.21
2024-02-02T09:04:07.483Z,86.31
2024-02-02T09:05:07.406Z,85.58
2024-02-02T09:06:07.476Z,86.00
2024-02-02T09:07:07.497Z,85.89
2024-02-02T09:08:07.370Z,86.10
2024-02-02T09:09:07.469Z,85.79
2024-02-02T09:10:07.523Z,85.65
2024-02-02T09:11:07.362Z,85.34
2024-02-02T09:12:07.376Z,85.13
2024-02-02T09:13:07.342Z,85.03
2024-02-02T09:14:07.314Z,85.03
2024-02-02T09:15:07.391Z,85.44
2024-02-02T09:16:07.296Z,84.92
2024-02-02T09:17:07.339Z,85.34
2024-02-02T09:18:07.387Z,85.44
2024-02-02T09:19:07.381Z,85.03
2024-02-02T09:20:07.375Z,85.65
2024-02-02T09:21:07.275Z,85.24
2024-02-02T09:22:07.265Z,84.72
2024-02-02T09:23:07.257Z,84.16
2024-02-02T09:24:07.279Z,84.37
2024-02-02T09:25:07.198Z,84.58
2024-02-02T09:26:07.196Z,84.78
2024-02-02T09:27:07.217Z,84.78
2024-02-02T09:28:07.218Z,83.95
2024-02-02T09:29:07.170Z,84.16
2024-02-02T09:30:07.233Z,84.12
2024-02-02T09:31:07.143Z,83.29
2024-02-02T09:32:07.130Z,83.71
2024-02-02T09:33:07.328Z,83.50
2024-02-02T09:34:07.290Z,83.09
2024-02-02T09:35:07.130Z,83.19
2024-02-02T09:36:07.120Z,82.78
2024-02-02T09:37:07.096Z,82.57
2024-02-02T09:38:07.066Z,81.81
2024-02-02T09:39:07.156Z,80.88
2024-02-02T09:40:07.073Z,80.57
2024-02-02T09:41:07.085Z,80.71
2024-02-02T09:42:07.106Z,80.67
2024-02-02T09:43:07.044Z,80.88
2024-02-02T09:44:07.173Z,80.77
2024-02-02T09:45:07.020Z,80.67
2024-02-02T09:46:06.994Z,80.26
2024-02-02T09:47:06.975Z,80.57
2024-02-02T09:48:07.184Z,79.63
2024-02-02T09:49:07.115Z,80.36
2024-02-02T09:50:06.991Z,79.94
2024-02-02T09:51:06.988Z,79.94
2024-02-02T09:52:06.962Z,80.67
2024-02-02T09:53:06.938Z,80.88
2024-02-02T09:54:06.952Z,79.63
2024-02-02T09:55:06.912Z,79.43
2024-02-02T09:56:06.878Z,80.36
2024-02-02T09:57:06.982Z,79.80
2024-02-02T09:58:06.852Z,79.19
2024-02-02T09:59:06.843Z,79.19
2024-02-02T10:00:06.919Z,79.49
2024-02-02T10:01:06.981Z,79.29
2024-02-02T10:02:06.822Z,79.08
2024-02-02T10:03:06.824Z,78.67
2024-02-02T10:04:09.796Z,78.77
2024-02-02T10:05:07.917Z,78.77
2024-02-02T10:06:06.928Z,78.56
2024-02-02T10:07:07.119Z,77.94
2024-02-02T10:08:06.777Z,78.25
2024-02-02T10:09:06.834Z,78.15
2024-02-02T10:10:06.863Z,78.36
2024-02-02T10:11:06.757Z,78.05
2024-02-02T10:12:06.794Z,78.36
2024-02-02T10:13:06.713Z,78.25
2024-02-02T10:14:06.714Z,78.46
2024-02-02T10:15:06.786Z,77.84
2024-02-02T10:16:06.694Z,77.74
2024-02-02T10:17:06.738Z,76.98
2024-02-02T10:18:06.719Z,77.39
2024-02-02T10:19:06.881Z,77.39
2024-02-02T10:20:06.653Z,76.87
2024-02-02T10:21:08.011Z,77.60
2024-02-02T10:22:06.651Z,77.04
2024-02-02T10:23:06.639Z,77.25
2024-02-02T10:24:12.079Z,77.46
2024-02-02T10:25:06.615Z,77.15
2024-02-02T10:26:06.597Z,77.04
2024-02-02T10:27:06.627Z,75.91
2024-02-02T10:28:06.677Z,76.53
2024-02-02T10:29:06.547Z,76.43
2024-02-02T10:30:06.638Z,75.60
2024-02-02T10:31:06.605Z,75.39
2024-02-02T10:32:06.522Z,75.77
2024-02-02T10:33:06.721Z,75.46
2024-02-02T10:34:06.612Z,75.15
2024-02-02T10:35:06.495Z,75.15
2024-02-02T10:36:06.534Z,74.84
2024-02-02T10:37:06.488Z,74.95
2024-02-02T10:38:06.462Z,74.95
2024-02-02T10:39:06.508Z,75.46
2024-02-02T10:40:06.456Z,75.26
2024-02-02T10:41:06.462Z,74.53
2024-02-02T10:42:06.515Z,75.26
2024-02-02T10:43:06.421Z,75.26
2024-02-02T10:44:06.458Z,74.74
2024-02-02T10:45:06.432Z,74.19
2024-02-02T10:46:06.379Z,73.16
2024-02-02T10:47:06.360Z,73.16
2024-02-02T10:48:06.481Z,72.54
2024-02-02T10:49:06.485Z,72.23
2024-02-02T10:50:06.535Z,72.23
2024-02-02T10:51:06.347Z,72.85
2024-02-02T10:52:06.309Z,73.36
2024-02-02T10:53:06.291Z,72.23
2024-02-02T10:54:06.309Z,72.13
2024-02-02T10:55:06.342Z,72.02
2024-02-02T10:56:06.274Z,71.09
2024-02-02T10:57:06.322Z,70.78
2024-02-02T10:58:06.273Z,71.09
2024-02-02T10:59:06.254Z,70.06
2024-02-02T11:00:06.238Z,70.06
2024-02-02T11:01:06.347Z,70.68
2024-02-02T11:02:06.232Z,69.65
2024-02-02T11:03:06.374Z,70.06
2024-02-02T11:04:06.279Z,69.85
2024-02-02T11:05:06.180Z,69.65
2024-02-02T11:06:06.233Z,70.06
2024-02-02T11:07:06.258Z,70.27
2024-02-02T11:08:06.151Z,70.27
2024-02-02T11:09:06.160Z,70.27
2024-02-02T11:10:06.142Z,69.96
2024-02-02T11:11:06.155Z,70.06
2024-02-02T11:12:06.135Z,70.37
2024-02-02T11:13:06.079Z,70.17
2024-02-02T11:14:06.094Z,70.82
2024-02-02T11:15:06.117Z,71.33
2024-02-02T11:16:06.047Z,70.47
2024-02-02T11:17:06.081Z,70.17
2024-02-02T11:18:06.216Z,70.37
2024-02-02T11:19:06.207Z,70.17
2024-02-02T11:20:06.017Z,70.30
2024-02-02T11:21:06.047Z,69.85
2024-02-02T11:22:06.062Z,70.06
2024-02-02T11:23:05.982Z,70.17
2024-02-02T11:24:05.985Z,69.85
2024-02-02T11:25:06.012Z,70.57
2024-02-02T11:26:05.986Z,70.68
2024-02-02T11:27:05.974Z,70.78
2024-02-02T11:28:05.957Z,70.78
2024-02-02T11:29:05.904Z,70.68
2024-02-02T11:30:06.043Z,70.27
2024-02-02T11:31:05.979Z,70.40
2024-02-02T11:32:05.881Z,70.37
2024-02-02T11:33:06.060Z,70.37
2024-02-02T11:34:05.926Z,70.78
2024-02-02T11:35:05.948Z,70.57
2024-02-02T11:36:05.886Z,70.06
2024-02-02T11:37:05.836Z,70.06
2024-02-02T11:38:05.858Z,70.68
2024-02-02T11:39:05.869Z,70.06
2024-02-02T11:40:05.797Z,70.47
2024-02-02T11:41:05.822Z,70.27
2024-02-02T11:42:05.834Z,69.85
2024-02-02T11:43:05.765Z,69.96
2024-02-02T11:44:05.807Z,70.27
2024-02-02T11:45:05.801Z,70.57
2024-02-02T11:46:08.585Z,70.17
2024-02-02T11:47:05.751Z,69.96
2024-02-02T11:48:05.904Z,69.54
2024-02-02T11:49:05.894Z,69.65
2024-02-02T11:50:05.908Z,69.65
2024-02-02T11:51:05.717Z,69.62
2024-02-02T11:52:05.686Z,69.72
2024-02-02T11:53:05.662Z,70.34
2024-02-02T11:54:05.710Z,69.82
2024-02-02T11:55:05.658Z,69.10
2024-02-02T11:56:05.724Z,68.90
2024-02-02T11:57:05.680Z,69.00
2024-02-02T11:58:05.807Z,68.90
2024-02-02T11:59:05.624Z,69.31
2024-02-02T12:00:05.640Z,69.00
2024-02-02T12:01:05.592Z,69.00
2024-02-02T12:02:05.605Z,69.51
2024-02-02T12:03:05.610Z,68.90
2024-02-02T12:04:05.559Z,68.69
2024-02-02T12:05:05.565Z,68.59
2024-02-02T12:06:05.628Z,69.00
2024-02-02T12:07:05.590Z,68.27
2024-02-02T12:08:05.494Z,68.48
2024-02-02T12:09:05.590Z,68.59
2024-02-02T12:10:05.525Z,68.59
2024-02-02T12:11:05.546Z,68.59
2024-02-02T12:12:05.497Z,68.66
2024-02-02T12:13:05.483Z,68.79
2024-02-02T12:14:05.432Z,68.69
2024-02-02T12:15:05.465Z,68.79
2024-02-02T12:16:05.468Z,68.90
2024-02-02T12:17:05.442Z,68.90
2024-02-02T12:18:05.467Z,68.59
2024-02-02T12:19:05.509Z,68.48
2024-02-02T12:20:05.490Z,68.90
2024-02-02T12:21:05.417Z,69.31
2024-02-02T12:22:05.414Z,68.90
2024-02-02T12:23:05.359Z,69.20
2024-02-02T12:24:05.536Z,68.76
2024-02-02T12:25:05.355Z,68.45
2024-02-02T12:26:05.318Z,69.17
2024-02-02T12:27:05.417Z,68.86
2024-02-02T12:28:05.330Z,68.04
2024-02-02T12:29:05.329Z,68.24
2024-02-02T12:30:05.331Z,68.14
2024-02-02T12:31:05.279Z,67.83
2024-02-02T12:32:05.276Z,68.04
2024-02-02T12:33:05.327Z,67.83
2024-02-02T12:34:05.472Z,68.14
2024-02-02T12:35:05.484Z,67.52
2024-02-02T12:36:10.064Z,67.52
2024-02-02T12:37:05.238Z,67.63
2024-02-02T12:38:05.289Z,67.73
2024-02-02T12:39:05.221Z,67.52
2024-02-02T12:40:05.174Z,67.63
2024-02-02T12:41:05.167Z,67.52
2024-02-02T12:42:07.231Z,67.42
2024-02-02T12:43:05.165Z,67.32
2024-02-02T12:44:05.189Z,67.83
2024-02-02T12:45:05.169Z,68.04
2024-02-02T12:46:05.116Z,67.73
2024-02-02T12:47:05.142Z,67.83
2024-02-02T12:48:05.209Z,67.63
2024-02-02T12:49:05.259Z,67.73
2024-02-02T12:50:05.198Z,67.73
2024-02-02T12:51:05.089Z,67.52
2024-02-02T12:52:05.076Z,67.93